createdAt,value
2023-03-06T00:01:54.230Z,57.23
2023-03-06T00:03:28.048Z,55.19
2023-03-06T00:05:02.434Z,56.29
2023-03-06T00:06:26.613Z,58.23
2023-03-06T00:08:06.419Z,59.89
2023-03-06T00:09:59.980Z,61.81
2023-03-06T00:11:44.985Z,64.19
2023-03-06T00:13:33.165Z,64.89
2023-03-06T00:14:59.861Z,61.57
2023-03-06T00:16:40.926Z,57.66
2023-03-06T00:18:17.022Z,54.97
2023-03-06T00:19:54.496Z,55.78
2023-03-06T00:21:28.160Z,57.48
2023-03-06T00:22:50.265Z,59.08
2023-03-06T00:24:24.680Z,60.59
2023-03-06T00:25:58.192Z,62.23
2023-03-06T00:27:33.873Z,64.31
2023-03-06T00:29:19.644Z,64.98
2023-03-06T00:30:45.977Z,61.81
2023-03-06T00:32:07.723Z,58.48
2023-03-06T00:33:43.316Z,55.42
2023-03-06T00:35:07.866Z,55.05
2023-03-06T00:36:43.752Z,56.83
2023-03-06T00:38:28.518Z,58.55
2023-03-06T00:40:00.156Z,60.28
2023-03-06T00:41:35.749Z,61.90
2023-03-06T00:43:11.545Z,63.83
2023-03-06T00:45:06.251Z,64.67
2023-03-06T00:46:47.313Z,61.57
2023-03-06T00:48:21.120Z,57.53
2023-03-06T00:49:49.941Z,55.01
2023-03-06T00:51:21.657Z,55.49
2023-03-06T00:52:45.349Z,57.01
2023-03-06T00:54:32.756Z,58.76
2023-03-06T00:56:02.248Z,60.75
2023-03-06T00:57:35.581Z,62.09
2023-03-06T00:59:07.263Z,63.96
2023-03-06T01:00:36.239Z,65.04
2023-03-06T01:02:05.212Z,62.70
2023-03-06T01:03:49.774Z,59.21
2023-03-06T01:05:11.339Z,55.71
2023-03-06T01:06:44.721Z,55.44
2023-03-06T01:08:06.424Z,56.56
2023-03-06T01:09:30.151Z,57.98
2023-03-06T01:11:03.996Z,59.83
2023-03-06T01:12:49.375Z,61.70
2023-03-06T01:14:24.799Z,63.91
2023-03-06T01:16:11.368Z,65.08
2023-03-06T01:17:44.932Z,62.40
2023-03-06T01:19:08.870Z,58.78
2023-03-06T01:20:45.090Z,55.76
2023-03-06T01:22:30.267Z,55.82
2023-03-06T01:24:06.504Z,57.36
2023-03-06T01:25:39.805Z,59.18
2023-03-06T01:27:21.343Z,60.93
2023-03-06T01:29:07.836Z,62.62
2023-03-06T01:30:32.115Z,65.26
2023-03-06T01:31:58.760Z,64.86
2023-03-06T01:33:23.009Z,61.99
2023-03-06T01:35:03.749Z,58.42
2023-03-06T01:36:45.146Z,55.28
2023-03-06T01:38:25.649Z,56.07
2023-03-06T01:39:59.019Z,57.85
2023-03-06T01:41:30.858Z,59.65
2023-03-06T01:43:17.380Z,61.47
2023-03-06T01:45:03.011Z,63.45
2023-03-06T01:46:50.461Z,64.96
2023-03-06T01:48:43.499Z,62.24
2023-03-06T01:50:09.913Z,58.36
2023-03-06T01:51:50.604Z,55.53
2023-03-06T01:53:31.794Z,55.99
2023-03-06T01:55:05.267Z,57.41
2023-03-06T01:56:38.581Z,59.16
2023-03-06T01:58:14.728Z,60.84
2023-03-06T02:00:00.106Z,62.80
2023-03-06T02:01:53.829Z,64.83
2023-03-06T02:03:38.823Z,62.80
2023-03-06T02:05:10.303Z,58.54
2023-03-06T02:06:46.393Z,55.16
2023-03-06T02:08:17.018Z,54.81
2023-03-06T02:10:08.280Z,56.14
2023-03-06T02:11:52.122Z,57.89
2023-03-06T02:13:27.645Z,59.37
2023-03-06T02:15:01.066Z,61.01
2023-03-06T02:16:22.996Z,62.11
2023-03-06T02:17:56.805Z,63.61
2023-03-06T02:19:29.394Z,64.39
2023-03-06T02:21:01.036Z,61.35
2023-03-06T02:22:25.333Z,57.64
2023-03-06T02:24:00.129Z,54.44
2023-03-06T02:25:40.846Z,54.96
2023-03-06T02:27:14.224Z,56.75
2023-03-06T02:28:47.923Z,58.98
2023-03-06T02:30:33.476Z,60.76
2023-03-06T02:32:04.776Z,62.58
2023-03-06T02:33:59.226Z,64.77
2023-03-06T02:35:31.033Z,64.00
2023-03-06T02:37:11.849Z,60.01
2023-03-06T02:38:34.223Z,55.97
2023-03-06T02:40:08.048Z,54.26
2023-03-06T02:41:31.735Z,55.18
2023-03-06T02:42:56.589Z,56.79
2023-03-06T02:44:46.210Z,58.43
2023-03-06T02:46:32.186Z,60.45
2023-03-06T02:48:13.375Z,62.01
2023-03-06T02:49:53.570Z,63.69
2023-03-06T02:51:38.781Z,64.40
2023-03-06T02:53:03.121Z,61.36
2023-03-06T02:54:50.777Z,57.33
2023-03-06T02:56:35.850Z,54.58
2023-03-06T02:58:20.493Z,55.60
2023-03-06T03:00:05.358Z,57.25
2023-03-06T03:01:50.592Z,59.11
2023-03-06T03:03:44.380Z,61.13
2023-03-06T03:05:29.494Z,63.78
2023-03-06T03:07:17.751Z,65.49
2023-03-06T03:09:02.241Z,62.72
2023-03-06T03:10:47.416Z,57.91
2023-03-06T03:12:41.463Z,55.44
2023-03-06T03:14:34.472Z,56.68
2023-03-06T03:16:00.509Z,58.64
2023-03-06T03:17:54.258Z,60.22
2023-03-06T03:19:39.759Z,61.89
2023-03-06T03:21:29.686Z,64.30
2023-03-06T03:23:14.811Z,64.81
2023-03-06T03:24:51.726Z,61.85
2023-03-06T03:26:25.237Z,57.32
2023-03-06T03:28:15.734Z,55.33
2023-03-06T03:29:42.657Z,56.18
2023-03-06T03:31:18.714Z,57.78
2023-03-06T03:32:52.968Z,59.89
2023-03-06T03:34:48.216Z,61.92
2023-03-06T03:36:34.982Z,64.18
2023-03-06T03:38:20.384Z,64.35
2023-03-06T03:40:01.181Z,61.24
2023-03-06T03:41:37.451Z,57.27
2023-03-06T03:43:12.269Z,55.03
2023-03-06T03:44:45.708Z,55.98
2023-03-06T03:46:23.610Z,57.83
2023-03-06T03:47:56.849Z,60.06
2023-03-06T03:49:30.150Z,62.01
2023-03-06T03:51:06.166Z,64.33
2023-03-06T03:52:44.038Z,65.17
2023-03-06T03:54:19.817Z,62.24
2023-03-06T03:56:05.695Z,58.54
2023-03-06T03:58:00.196Z,55.30
2023-03-06T03:59:41.120Z,56.31
2023-03-06T04:01:41.552Z,58.48
2023-03-06T04:03:34.771Z,60.62
2023-03-06T04:05:10.469Z,62.76
2023-03-06T04:07:05.314Z,65.12
2023-03-06T04:08:53.262Z,63.47
2023-03-06T04:10:46.895Z,59.77
2023-03-06T04:12:24.420Z,55.83
2023-03-06T04:14:10.404Z,55.76
2023-03-06T04:16:05.248Z,57.70
2023-03-06T04:17:41.907Z,60.08
2023-03-06T04:19:38.607Z,62.00
2023-03-06T04:21:32.429Z,64.71
2023-03-06T04:23:06.409Z,64.55
2023-03-06T04:24:52.372Z,61.40
2023-03-06T04:26:45.750Z,57.60
2023-03-06T04:28:42.251Z,55.69
2023-03-06T04:30:27.723Z,57.44
2023-03-06T04:32:15.504Z,59.69
2023-03-06T04:34:09.064Z,61.67
2023-03-06T04:35:52.026Z,64.48
2023-03-06T04:37:42.148Z,65.12
2023-03-06T04:39:16.066Z,61.80
2023-03-06T04:41:02.984Z,58.45
2023-03-06T04:42:51.553Z,55.50
2023-03-06T04:44:39.055Z,56.61
2023-03-06T04:46:27.201Z,58.88
2023-03-06T04:48:13.030Z,61.05
2023-03-06T04:49:54.420Z,63.17
2023-03-06T04:51:43.242Z,65.24
2023-03-06T04:53:28.550Z,63.38
2023-03-06T04:55:15.812Z,59.61
2023-03-06T04:56:51.741Z,56.49
2023-03-06T04:58:37.151Z,56.40
2023-03-06T05:00:11.834Z,58.33
2023-03-06T05:02:07.437Z,60.29
2023-03-06T05:03:53.883Z,62.62
2023-03-06T05:05:28.808Z,65.55
2023-03-06T05:07:14.647Z,64.75
2023-03-06T05:09:02.204Z,61.57
2023-03-06T05:10:55.339Z,58.19
2023-03-06T05:12:40.356Z,56.11
2023-03-06T05:14:32.495Z,57.63
2023-03-06T05:16:06.187Z,60.04
2023-03-06T05:17:51.400Z,62.01
2023-03-06T05:19:40.031Z,64.83
2023-03-06T05:21:25.847Z,65.43
2023-03-06T05:22:59.686Z,62.30
2023-03-06T05:24:50.015Z,59.14
2023-03-06T05:26:36.294Z,56.20
2023-03-06T05:28:18.528Z,56.90
2023-03-06T05:30:04.050Z,59.34
2023-03-06T05:31:58.293Z,61.79
2023-03-06T05:33:43.933Z,64.27
2023-03-06T05:35:37.289Z,64.94
2023-03-06T05:37:22.937Z,61.61
2023-03-06T05:38:57.132Z,58.42
2023-03-06T05:40:43.746Z,56.26
2023-03-06T05:42:38.160Z,57.54
2023-03-06T05:44:12.917Z,59.62
2023-03-06T05:45:59.203Z,61.97
2023-03-06T05:47:33.646Z,64.18
2023-03-06T05:49:20.881Z,65.26
2023-03-06T05:51:07.663Z,62.15
2023-03-06T05:52:41.902Z,58.81
2023-03-06T05:54:30.232Z,55.59
2023-03-06T05:56:15.576Z,56.66
2023-03-06T05:58:04.898Z,58.72
2023-03-06T05:59:46.536Z,60.66
2023-03-06T06:01:32.422Z,63.13
2023-03-06T06:03:07.474Z,65.47
2023-03-06T06:04:40.611Z,63.74
2023-03-06T06:06:15.496Z,60.20
2023-03-06T06:08:04.735Z,55.98
2023-03-06T06:09:50.833Z,55.80
2023-03-06T06:11:15.436Z,58.08
2023-03-06T06:12:49.243Z,60.16
2023-03-06T06:14:34.494Z,62.05
2023-03-06T06:16:20.328Z,64.49
2023-03-06T06:17:56.897Z,64.71
2023-03-06T06:19:30.821Z,60.88
2023-03-06T06:21:17.172Z,57.19
2023-03-06T06:23:05.848Z,55.79
2023-03-06T06:24:56.545Z,57.52
2023-03-06T06:26:20.253Z,59.76
2023-03-06T06:28:13.962Z,61.87
2023-03-06T06:30:05.620Z,64.63
2023-03-06T06:31:47.849Z,64.90
2023-03-06T06:33:42.171Z,60.81
2023-03-06T06:35:04.355Z,56.77
2023-03-06T06:36:40.084Z,55.29
2023-03-06T06:38:25.299Z,57.13
2023-03-06T06:40:11.603Z,59.10
2023-03-06T06:42:09.642Z,61.07
2023-03-06T06:43:46.712Z,63.97
2023-03-06T06:45:20.409Z,65.52
2023-03-06T06:47:21.855Z,63.22
2023-03-06T06:49:03.685Z,58.73
2023-03-06T06:50:45.808Z,56.11
2023-03-06T06:52:19.496Z,56.55
2023-03-06T06:54:04.745Z,58.21
2023-03-06T06:55:40.343Z,60.62
2023-03-06T06:57:09.875Z,62.51
2023-03-06T06:58:31.840Z,64.56
2023-03-06T07:00:16.909Z,64.43
2023-03-06T07:01:59.001Z,61.38
2023-03-06T07:03:32.879Z,58.40
2023-03-06T07:05:20.820Z,56.20
2023-03-06T07:07:06.280Z,57.06
2023-03-06T07:08:56.699Z,59.21
2023-03-06T07:10:46.965Z,61.29
2023-03-06T07:12:20.102Z,63.31
2023-03-06T07:13:41.895Z,65.20
2023-03-06T07:15:35.108Z,64.63
2023-03-06T07:17:11.228Z,60.75
2023-03-06T07:18:45.353Z,56.50
2023-03-06T07:20:32.205Z,55.36
2023-03-06T07:22:17.774Z,56.92
2023-03-06T07:23:54.280Z,59.39
2023-03-06T07:25:40.791Z,61.27
2023-03-06T07:27:14.292Z,63.97
2023-03-06T07:29:09.233Z,64.94
2023-03-06T07:30:57.033Z,61.09
2023-03-06T07:32:38.964Z,57.93
2023-03-06T07:34:13.585Z,55.47
2023-03-06T07:35:51.383Z,56.66
2023-03-06T07:37:13.374Z,58.06
2023-03-06T07:38:59.832Z,59.77
2023-03-06T07:40:45.619Z,61.55
2023-03-06T07:42:31.838Z,63.64
2023-03-06T07:43:55.292Z,64.41
2023-03-06T07:45:49.253Z,62.17
2023-03-06T07:47:23.766Z,58.44
2023-03-06T07:49:00.154Z,56.53
2023-03-06T07:50:46.259Z,56.93
2023-03-06T07:52:20.129Z,58.50
2023-03-06T07:54:11.195Z,59.98
2023-03-06T07:55:57.001Z,61.75
2023-03-06T07:57:42.354Z,64.37
2023-03-06T07:59:31.380Z,64.10
2023-03-06T08:01:17.765Z,60.83
2023-03-06T08:03:04.818Z,56.86
2023-03-06T08:04:28.913Z,55.99
2023-03-06T08:06:03.481Z,56.76
2023-03-06T08:07:48.957Z,58.68
2023-03-06T08:09:35.413Z,61.51
2023-03-06T08:11:20.996Z,63.58
2023-03-06T08:13:07.913Z,64.18
2023-03-06T08:14:42.434Z,61.43
2023-03-06T08:16:17.396Z,58.11
2023-03-06T08:18:03.706Z,56.04
2023-03-06T08:19:38.518Z,57.15
2023-03-06T08:21:12.700Z,58.50
2023-03-06T08:22:58.745Z,60.30
2023-03-06T08:24:44.087Z,61.79
2023-03-06T08:26:20.062Z,63.83
2023-03-06T08:27:49.997Z,64.20
2023-03-06T08:29:44.193Z,61.79
2023-03-06T08:31:29.565Z,57.88
2023-03-06T08:33:03.048Z,55.60
2023-03-06T08:34:48.191Z,56.53
2023-03-06T08:36:38.682Z,58.63
2023-03-06T08:38:23.810Z,60.63
2023-03-06T08:40:09.749Z,62.29
2023-03-06T08:41:44.686Z,64.59
2023-03-06T08:43:39.186Z,64.23
2023-03-06T08:45:33.404Z,60.13
2023-03-06T08:47:19.956Z,56.29
2023-03-06T08:49:01.038Z,55.46
2023-03-06T08:50:34.847Z,56.93
2023-03-06T08:52:22.878Z,58.42
2023-03-06T08:54:16.511Z,60.43
2023-03-06T08:56:01.829Z,61.76
2023-03-06T08:57:37.891Z,63.43
2023-03-06T08:59:12.791Z,64.49
2023-03-06T09:00:48.962Z,62.02
2023-03-06T09:02:34.816Z,58.54
2023-03-06T09:04:08.865Z,56.04
2023-03-06T09:05:57.475Z,56.33
2023-03-06T09:07:45.012Z,57.65
2023-03-06T09:09:18.572Z,60.02
2023-03-06T09:10:40.367Z,60.77
2023-03-06T09:12:13.905Z,61.86
2023-03-06T09:13:59.379Z,63.30
2023-03-06T09:15:24.257Z,64.67
2023-03-06T09:17:09.879Z,62.85
2023-03-06T09:18:31.926Z,59.59
2023-03-06T09:20:18.360Z,56.04
2023-03-06T09:22:03.599Z,55.84
2023-03-06T09:23:39.432Z,57.06
2023-03-06T09:25:26.499Z,58.69
2023-03-06T09:27:07.658Z,60.49
2023-03-06T09:28:42.069Z,62.03
2023-03-06T09:30:28.299Z,64.30
2023-03-06T09:32:02.086Z,63.76
2023-03-06T09:33:38.104Z,61.31
2023-03-06T09:35:23.289Z,57.61
2023-03-06T09:37:05.116Z,55.84
2023-03-06T09:38:50.926Z,56.60
2023-03-06T09:40:31.807Z,57.85
2023-03-06T09:44:04.964Z,60.89
2023-03-06T09:46:00.309Z,62.41
2023-03-06T09:47:46.733Z,64.96
2023-03-06T09:49:37.688Z,62.88
2023-03-06T09:51:19.031Z,59.17
2023-03-06T09:53:04.641Z,55.69
2023-03-06T09:54:49.747Z,56.08
2023-03-06T09:56:41.158Z,57.78
2023-03-06T09:58:15.912Z,59.14
2023-03-06T09:59:49.735Z,60.82
2023-03-06T10:01:36.053Z,62.21
2023-03-06T10:03:17.768Z,64.39
2023-03-06T10:06:51.131Z,59.60
2023-03-06T10:08:31.465Z,56.66
2023-03-06T10:10:22.286Z,56.01
2023-03-06T10:11:56.169Z,57.38
2023-03-06T10:13:29.694Z,59.26
2023-03-06T10:15:11.898Z,60.28
2023-03-06T10:17:05.816Z,62.02
2023-03-06T10:18:46.131Z,63.94
2023-03-06T10:20:19.864Z,64.42
2023-03-06T10:21:56.509Z,61.40
2023-03-06T10:23:39.161Z,58.65
2023-03-06T10:25:12.339Z,56.28
2023-03-06T10:26:36.526Z,56.68
2023-03-06T10:28:11.805Z,58.14
2023-03-06T10:30:04.563Z,59.94
2023-03-06T10:31:49.780Z,62.20
2023-03-06T10:33:29.927Z,64.28
2023-03-06T10:35:15.577Z,64.34
2023-03-06T10:36:49.255Z,61.13
2023-03-06T10:38:18.422Z,58.22
2023-03-06T10:40:00.248Z,56.49
2023-03-06T10:41:22.138Z,56.79
2023-03-06T10:43:11.384Z,58.15
2023-03-06T10:44:58.014Z,60.47
2023-03-06T10:46:44.295Z,62.60
2023-03-06T10:48:29.358Z,65.75
2023-03-06T10:50:03.258Z,64.35
2023-03-06T10:51:48.942Z,61.49
2023-03-06T10:53:23.055Z,58.25
2023-03-06T10:54:57.078Z,56.63
2023-03-06T10:56:30.737Z,57.10
2023-03-06T10:57:57.640Z,59.00
2023-03-06T10:59:31.371Z,60.80
2023-03-06T11:01:02.826Z,62.35
2023-03-06T11:02:40.192Z,64.73
2023-03-06T11:04:10.134Z,64.86
2023-03-06T11:05:39.650Z,61.94
2023-03-06T11:07:02.021Z,59.33
2023-03-06T11:08:31.134Z,56.61
2023-03-06T11:10:16.309Z,56.47
2023-03-06T11:12:11.175Z,57.91
2023-03-06T11:13:37.768Z,59.93
2023-03-06T11:15:32.215Z,61.71
2023-03-06T11:17:08.136Z,64.45
2023-03-06T11:18:43.792Z,64.45
2023-03-06T11:20:20.614Z,62.21
2023-03-06T11:22:10.091Z,58.38
2023-03-06T11:23:55.375Z,56.53
2023-03-06T11:25:41.156Z,57.18
2023-03-06T11:27:30.684Z,58.86
2023-03-06T11:29:19.130Z,61.24
2023-03-06T11:31:14.239Z,63.47
2023-03-06T11:33:00.033Z,64.51
2023-03-06T11:34:51.160Z,62.04
2023-03-06T11:36:15.285Z,58.61
2023-03-06T11:38:02.855Z,55.75
2023-03-06T11:39:38.727Z,55.87
2023-03-06T11:41:03.270Z,57.48
2023-03-06T11:42:39.129Z,59.11
2023-03-06T11:44:29.742Z,60.94
2023-03-06T11:46:18.318Z,62.56
2023-03-06T11:48:05.138Z,64.80
2023-03-06T11:49:59.576Z,62.99
2023-03-06T11:51:25.842Z,59.67
2023-03-06T11:53:11.239Z,56.39
2023-03-06T11:55:06.210Z,56.24
2023-03-06T11:56:50.520Z,57.83
2023-03-06T11:58:19.794Z,59.39
2023-03-06T11:59:57.868Z,61.13
2023-03-06T12:01:30.787Z,63.08
2023-03-06T12:03:17.793Z,65.07
2023-03-06T12:04:54.270Z,63.06
2023-03-06T12:06:37.157Z,60.45
2023-03-06T12:08:22.179Z,56.67
2023-03-06T12:10:07.711Z,56.06
2023-03-06T12:11:43.206Z,57.77
2023-03-06T12:13:27.717Z,59.62
2023-03-06T12:15:04.048Z,61.41
2023-03-06T12:16:39.508Z,62.95
2023-03-06T12:18:24.807Z,64.96
2023-03-06T12:20:10.403Z,63.14
2023-03-06T12:21:46.572Z,59.93
2023-03-06T12:23:41.135Z,56.85
2023-03-06T12:25:26.345Z,56.85
2023-03-06T12:27:09.398Z,58.09
2023-03-06T12:28:55.259Z,59.90
2023-03-06T12:30:35.954Z,61.72
2023-03-06T12:32:30.342Z,63.78
2023-03-06T12:34:16.634Z,63.09
2023-03-06T12:35:51.589Z,59.93
2023-03-06T12:37:25.080Z,57.09
2023-03-06T12:39:10.127Z,55.94
2023-03-06T12:40:45.969Z,57.17
2023-03-06T12:42:23.392Z,58.78
2023-03-06T12:44:09.295Z,60.28
2023-03-06T12:45:55.201Z,61.88
2023-03-06T12:47:28.752Z,63.88
2023-03-06T12:49:10.307Z,63.74
2023-03-06T12:50:44.858Z,61.00
2023-03-06T12:52:21.541Z,57.33
2023-03-06T12:54:10.205Z,55.54
2023-03-06T12:55:42.240Z,57.20
2023-03-06T12:57:17.851Z,58.95
2023-03-06T12:59:04.145Z,60.36
2023-03-06T13:00:26.141Z,62.23
2023-03-06T13:02:18.196Z,63.98
2023-03-06T13:03:59.063Z,63.53
2023-03-06T13:05:32.865Z,60.31
2023-03-06T13:07:13.829Z,56.84
2023-03-06T13:09:07.272Z,56.04
2023-03-06T13:11:00.515Z,57.37
2023-03-06T13:12:36.060Z,58.90
2023-03-06T13:14:08.254Z,60.37
2023-03-06T13:15:49.744Z,62.15
2023-03-06T13:17:35.238Z,64.17
2023-03-06T13:19:20.107Z,63.99
2023-03-06T13:21:05.267Z,60.91
2023-03-06T13:22:38.595Z,57.25
2023-03-06T13:24:22.142Z,56.34
2023-03-06T13:26:07.343Z,57.08
2023-03-06T13:27:33.677Z,58.61
2023-03-06T13:29:07.635Z,60.33
2023-03-06T13:30:40.906Z,61.89
2023-03-06T13:32:10.434Z,63.67
2023-03-06T13:33:47.232Z,64.86
2023-03-06T13:35:23.830Z,62.74
2023-03-06T13:37:00.077Z,59.51
2023-03-06T13:38:33.828Z,56.99
2023-03-06T13:40:07.424Z,56.66
2023-03-06T13:41:52.221Z,57.79
2023-03-06T13:43:27.849Z,59.66
2023-03-06T13:45:13.368Z,61.96
2023-03-06T13:46:56.878Z,63.98
2023-03-06T13:48:51.929Z,64.15
2023-03-06T13:50:37.017Z,60.95
2023-03-06T13:52:01.906Z,57.90
2023-03-06T13:53:48.006Z,56.35
2023-03-06T13:55:21.183Z,57.36
2023-03-06T13:56:54.996Z,59.32
2023-03-06T13:58:19.368Z,60.88
2023-03-06T13:59:43.216Z,62.19
2023-03-06T14:01:08.030Z,64.24
2023-03-06T14:02:42.503Z,64.42
2023-03-06T14:04:23.164Z,61.57
2023-03-06T14:06:08.799Z,58.40
2023-03-06T14:07:42.729Z,56.28
2023-03-06T14:09:27.423Z,57.10
2023-03-06T14:11:02.437Z,58.86
2023-03-06T14:12:24.532Z,60.47
2023-03-06T14:13:48.792Z,61.82
2023-03-06T14:15:18.437Z,63.29
2023-03-06T14:17:00.403Z,64.08
2023-03-06T14:18:31.789Z,61.51
2023-03-06T14:19:57.525Z,58.86
2023-03-06T14:21:19.228Z,56.00
2023-03-06T14:22:41.186Z,56.23
2023-03-06T14:24:15.023Z,57.07
2023-03-06T14:25:47.916Z,59.12
2023-03-06T14:27:09.845Z,60.77
2023-03-06T14:28:31.830Z,62.45
2023-03-06T14:30:01.063Z,64.15
2023-03-06T14:31:24.200Z,64.17
2023-03-06T14:32:54.126Z,62.17
2023-03-06T14:34:22.746Z,59.24
2023-03-06T14:36:08.813Z,56.73
2023-03-06T14:37:54.985Z,56.81
2023-03-06T14:39:16.612Z,58.35
2023-03-06T14:40:52.482Z,59.62
2023-03-06T14:42:28.900Z,61.27
2023-03-06T14:44:09.611Z,63.30
2023-03-06T14:45:38.775Z,64.57
2023-03-06T14:47:12.247Z,62.92
2023-03-06T14:48:45.734Z,59.80
2023-03-06T14:50:26.687Z,56.57
2023-03-06T14:52:10.160Z,55.59
2023-03-06T14:53:48.466Z,57.70
2023-03-06T14:55:28.394Z,59.47
2023-03-06T14:56:55.182Z,60.54
2023-03-06T14:58:49.343Z,62.13
2023-03-06T15:00:23.861Z,64.37
2023-03-06T15:02:09.402Z,63.71
2023-03-06T15:03:43.108Z,60.16
2023-03-06T15:05:05.340Z,57.26
2023-03-06T15:06:27.072Z,56.08
2023-03-06T15:07:49.512Z,56.35
2023-03-06T15:09:14.231Z,57.83
2023-03-06T15:10:43.552Z,59.35
2023-03-06T15:12:07.947Z,60.70
2023-03-06T15:13:29.684Z,61.94
2023-03-06T15:14:51.562Z,63.45
2023-03-06T15:16:12.988Z,64.62
2023-03-06T15:17:39.505Z,63.07
2023-03-06T15:19:04.472Z,60.51
2023-03-06T15:20:26.488Z,57.36
2023-03-06T15:21:48.863Z,55.88
2023-03-06T15:23:10.906Z,56.29
2023-03-06T15:24:33.083Z,57.96
2023-03-06T15:25:57.746Z,59.27
2023-03-06T15:27:22.090Z,60.61
2023-03-06T15:28:44.198Z,61.96
2023-03-06T15:30:06.140Z,63.38
2023-03-06T15:31:28.226Z,64.87
2023-03-06T15:32:50.640Z,63.48
2023-03-06T15:34:12.491Z,60.80
2023-03-06T15:35:37.849Z,58.17
2023-03-06T15:37:00.342Z,56.17
2023-03-06T15:38:22.103Z,56.68
2023-03-06T15:39:46.853Z,58.24
2023-03-06T15:41:16.000Z,59.77
2023-03-06T15:42:42.633Z,61.50
2023-03-06T15:44:06.785Z,63.44
2023-03-06T15:45:29.962Z,65.52
2023-03-06T15:46:59.241Z,64.33
2023-03-06T15:48:28.509Z,61.25
2023-03-06T15:50:03.268Z,58.91
2023-03-06T15:51:24.876Z,56.67
2023-03-06T15:52:58.559Z,57.16
2023-03-06T15:54:19.914Z,58.97
2023-03-06T15:55:44.988Z,60.50
2023-03-06T15:57:06.827Z,62.21
2023-03-06T15:58:28.624Z,64.52
2023-03-06T15:59:58.028Z,65.18
2023-03-06T16:01:43.023Z,63.54
2023-03-06T16:03:29.306Z,60.14
2023-03-06T16:05:05.752Z,57.18
2023-03-06T16:06:37.563Z,56.59
2023-03-06T16:08:14.794Z,58.17
2023-03-06T16:09:43.982Z,60.26
2023-03-06T16:11:16.941Z,61.91
2023-03-06T16:12:50.333Z,64.68
2023-03-06T16:14:24.188Z,65.17
2023-03-06T16:15:46.592Z,63.23
2023-03-06T16:17:08.541Z,60.77
2023-03-06T16:18:59.098Z,58.19
2023-03-06T16:20:33.579Z,56.74
2023-03-06T16:22:09.263Z,57.91
2023-03-06T16:23:38.739Z,59.83
2023-03-06T16:25:00.840Z,61.85
2023-03-06T16:26:22.490Z,63.90
2023-03-06T16:27:44.683Z,65.60
2023-03-06T16:29:25.663Z,64.19
2023-03-06T16:31:01.710Z,60.81
2023-03-06T16:32:37.819Z,58.47
2023-03-06T16:34:13.437Z,56.78
2023-03-06T16:35:55.239Z,57.54
2023-03-06T16:37:21.482Z,59.78
2023-03-06T16:38:43.915Z,61.57
2023-03-06T16:40:18.819Z,63.44
2023-03-06T16:41:40.979Z,65.29
2023-03-06T16:43:10.718Z,64.16
2023-03-06T16:44:40.102Z,61.49
2023-03-06T16:46:12.267Z,59.13
2023-03-06T16:47:46.444Z,57.05
2023-03-06T16:49:08.144Z,57.30
2023-03-06T16:50:34.685Z,59.08
2023-03-06T16:52:29.181Z,60.98
2023-03-06T16:54:14.548Z,63.69
2023-03-06T16:56:02.155Z,65.15
2023-03-06T16:57:37.648Z,62.76
2023-03-06T16:58:59.685Z,60.05
2023-03-06T17:00:33.344Z,57.67
2023-03-06T17:02:00.002Z,56.53
2023-03-06T17:03:21.670Z,57.81
2023-03-06T17:04:57.633Z,59.26
2023-03-06T17:06:31.097Z,61.52
2023-03-06T17:07:56.157Z,63.38
2023-03-06T17:09:18.122Z,65.29
2023-03-06T17:10:44.922Z,64.44
2023-03-06T17:12:06.769Z,61.81
2023-03-06T17:13:28.453Z,59.11
2023-03-06T17:14:53.129Z,56.57
2023-03-06T17:16:16.216Z,56.39
2023-03-06T17:17:51.911Z,57.98
2023-03-06T17:19:15.188Z,59.76
2023-03-06T17:20:45.048Z,61.48
2023-03-06T17:22:09.187Z,63.43
2023-03-06T17:23:30.593Z,65.05
2023-03-06T17:25:05.128Z,63.72
2023-03-06T17:26:34.088Z,61.15
2023-03-06T17:27:56.631Z,58.38
2023-03-06T17:29:33.665Z,55.94
2023-03-06T17:31:18.702Z,57.12
2023-03-06T17:33:04.266Z,59.19
2023-03-06T17:34:40.146Z,61.34
2023-03-06T17:36:14.675Z,63.74
2023-03-06T17:38:00.726Z,64.92
2023-03-06T17:39:24.554Z,62.81
2023-03-06T17:40:49.036Z,60.20
2023-03-06T17:42:10.600Z,57.51
2023-03-06T17:43:37.237Z,56.37
2023-03-06T17:45:11.057Z,57.28
2023-03-06T17:46:35.483Z,59.28
2023-03-06T17:48:05.147Z,60.87
2023-03-06T17:49:47.744Z,62.74
2023-03-06T17:51:10.019Z,64.85
2023-03-06T17:52:43.241Z,63.71
2023-03-06T17:54:19.297Z,61.09
2023-03-06T17:55:48.665Z,57.91
2023-03-06T17:57:33.844Z,56.53
2023-03-06T17:59:05.677Z,57.66
2023-03-06T18:00:27.520Z,59.49
2023-03-06T18:01:51.918Z,61.40
2023-03-06T18:03:23.398Z,63.16
2023-03-06T18:04:53.319Z,65.11
2023-03-06T18:06:15.721Z,64.45
2023-03-06T18:07:40.147Z,62.12
2023-03-06T18:09:01.901Z,59.71
2023-03-06T18:10:35.137Z,57.25
2023-03-06T18:11:57.310Z,56.56
2023-03-06T18:13:38.988Z,57.72
2023-03-06T18:15:35.995Z,59.95
2023-03-06T18:16:56.290Z,62.15
2023-03-06T18:18:20.343Z,64.11
2023-03-06T18:19:45.116Z,64.87
2023-03-06T18:21:06.885Z,63.24
2023-03-06T18:22:30.941Z,60.75
2023-03-06T18:23:55.538Z,57.95
2023-03-06T18:25:19.852Z,56.44
2023-03-06T18:26:56.847Z,57.29
2023-03-06T18:28:18.589Z,58.90
2023-03-06T18:29:40.872Z,60.55
2023-03-06T18:31:08.319Z,62.05
2023-03-06T18:32:43.125Z,64.51
2023-03-06T18:34:08.315Z,65.13
2023-03-06T18:35:45.208Z,62.61
2023-03-06T18:37:21.183Z,59.48
2023-03-06T18:38:55.928Z,56.71
2023-03-06T18:40:17.654Z,56.29
2023-03-06T18:41:39.594Z,57.70
2023-03-06T18:43:04.487Z,59.28
2023-03-06T18:44:28.671Z,60.84
2023-03-06T18:46:02.945Z,62.89
2023-03-06T18:47:25.005Z,65.01
2023-03-06T18:48:50.275Z,64.34
2023-03-06T18:50:17.658Z,61.65
2023-03-06T18:51:39.912Z,58.75
2023-03-06T18:53:02.299Z,56.14
2023-03-06T18:54:36.894Z,56.15
2023-03-06T18:55:59.109Z,57.66
2023-03-06T18:57:23.395Z,59.38
2023-03-06T18:58:57.686Z,61.17
2023-03-06T19:00:20.000Z,62.64
2023-03-06T19:01:42.293Z,64.76
2023-03-06T19:03:07.302Z,64.66
2023-03-06T19:04:33.707Z,62.17
2023-03-06T19:05:56.253Z,59.46
2023-03-06T19:07:20.344Z,57.16
2023-03-06T19:08:42.346Z,56.28
2023-03-06T19:10:16.177Z,57.38
2023-03-06T19:11:49.606Z,59.69
2023-03-06T19:13:13.189Z,61.36
2023-03-06T19:14:36.468Z,62.95
2023-03-06T19:16:06.700Z,64.96
2023-03-06T19:17:28.560Z,64.03
2023-03-06T19:18:55.244Z,61.53
2023-03-06T19:20:19.333Z,59.02
2023-03-06T19:21:41.234Z,56.64
2023-03-06T19:23:14.871Z,56.70
2023-03-06T19:24:36.453Z,58.37
2023-03-06T19:26:07.747Z,60.39
2023-03-06T19:27:30.119Z,61.76
2023-03-06T19:28:54.679Z,63.59
2023-03-06T19:30:28.147Z,65.24
2023-03-06T19:31:52.410Z,63.96
2023-03-06T19:33:14.637Z,61.32
2023-03-06T19:34:36.527Z,58.68
2023-03-06T19:36:05.693Z,56.83
2023-03-06T19:37:27.296Z,57.08
2023-03-06T19:38:56.286Z,58.52
2023-03-06T19:40:25.735Z,60.40
2023-03-06T19:41:47.916Z,62.13
2023-03-06T19:43:12.882Z,64.24
2023-03-06T19:44:36.841Z,65.41
2023-03-06T19:46:01.019Z,63.23
2023-03-06T19:47:37.547Z,60.56
2023-03-06T19:49:09.934Z,57.87
2023-03-06T19:50:54.114Z,56.57
2023-03-06T19:52:16.901Z,57.82
2023-03-06T19:53:43.559Z,59.70
2023-03-06T19:55:13.082Z,61.67
2023-03-06T19:56:36.969Z,63.91
2023-03-06T19:58:12.626Z,64.67
2023-03-06T19:59:37.072Z,62.79
2023-03-06T20:00:59.263Z,60.35
2023-03-06T20:02:26.428Z,57.80
2023-03-06T20:03:58.763Z,56.32
2023-03-06T20:05:23.095Z,57.44
2023-03-06T20:06:46.651Z,59.24
2023-03-06T20:08:08.251Z,60.95
2023-03-06T20:09:32.279Z,62.70
2023-03-06T20:10:54.601Z,64.40
2023-03-06T20:12:18.494Z,64.07
2023-03-06T20:13:46.903Z,61.86
2023-03-06T20:15:09.281Z,59.19
2023-03-06T20:16:31.227Z,56.82
2023-03-06T20:18:01.223Z,56.96
2023-03-06T20:19:22.935Z,58.25
2023-03-06T20:20:52.057Z,60.02
2023-03-06T20:22:25.424Z,61.41
2023-03-06T20:23:59.324Z,63.15
2023-03-06T20:25:32.517Z,65.12
2023-03-06T20:27:09.194Z,63.67
2023-03-06T20:28:31.041Z,60.64
2023-03-06T20:29:52.942Z,58.24
2023-03-06T20:31:26.181Z,56.56
2023-03-06T20:33:09.106Z,57.46
2023-03-06T20:34:39.018Z,59.28
2023-03-06T20:36:00.756Z,61.14
2023-03-06T20:37:22.439Z,62.72
2023-03-06T20:38:44.671Z,64.86
2023-03-06T20:40:16.484Z,64.76
2023-03-06T20:41:38.493Z,62.25
2023-03-06T20:43:00.196Z,59.76
2023-03-06T20:44:22.983Z,57.22
2023-03-06T20:45:47.156Z,56.28